createdAt,value
2023-05-14T00:00:17.584Z,67.85
2023-05-14T00:06:19.350Z,65.80
2023-05-14T00:12:21.113Z,65.23
2023-05-14T00:18:23.139Z,65.75
2023-05-14T00:24:28.002Z,73.61
2023-05-14T00:30:30.064Z,75.81
2023-05-14T00:36:32.564Z,73.26
2023-05-14T00:42:43.963Z,70.96
2023-05-14T00:48:47.533Z,66.16
2023-05-14T00:54:53.044Z,73.85
2023-05-14T01:00:55.588Z,66.84
2023-05-14T01:07:09.073Z,68.92
2023-05-14T01:13:39.651Z,67.53
2023-05-14T01:19:53.072Z,65.98
2023-05-14T01:26:04.636Z,66.23
2023-05-14T01:32:11.212Z,65.87
2023-05-14T01:38:18.691Z,82.14
2023-05-14T01:44:25.911Z,74.97
2023-05-14T01:50:30.670Z,70.86
2023-05-14T01:56:33.147Z,70.00
2023-05-14T02:02:36.684Z,67.93
2023-05-14T02:08:41.054Z,68.04
2023-05-14T02:14:46.561Z,71.30
2023-05-14T02:20:49.026Z,77.75
2023-05-14T02:26:53.910Z,77.89
2023-05-14T02:32:57.031Z,70.04
2023-05-14T02:39:02.421Z,69.22
2023-05-14T02:45:06.833Z,68.23
2023-05-14T02:51:12.439Z,80.48
2023-05-14T02:57:14.826Z,75.99
2023-05-14T03:03:17.390Z,71.54
2023-05-14T03:09:22.785Z,71.80
2023-05-14T03:15:26.181Z,74.89
2023-05-14T03:21:33.770Z,70.91
2023-05-14T03:27:36.262Z,71.39
2023-05-14T03:33:41.723Z,69.30
2023-05-14T03:39:44.208Z,74.60
2023-05-14T03:45:52.878Z,76.74
2023-05-14T03:51:55.249Z,71.34
2023-05-14T03:58:17.316Z,71.91
2023-05-14T04:04:29.358Z,70.70
2023-05-14T04:10:42.073Z,72.69
2023-05-14T04:16:50.365Z,69.21
2023-05-14T04:23:02.432Z,68.81
2023-05-14T04:29:08.676Z,68.24
2023-05-14T04:35:11.774Z,69.34
2023-05-14T04:41:30.786Z,69.67
2023-05-14T04:47:33.871Z,67.74
2023-05-14T04:53:35.826Z,66.90
2023-05-14T04:59:41.758Z,66.32
2023-05-14T05:05:44.254Z,64.97
2023-05-14T05:11:49.718Z,63.81
2023-05-14T05:18:02.160Z,66.21
2023-05-14T05:24:09.061Z,63.72
2023-05-14T05:30:12.186Z,62.79
2023-05-14T05:36:14.638Z,61.27
2023-05-14T05:42:17.108Z,61.26
2023-05-14T05:48:22.639Z,61.68
2023-05-14T05:54:40.430Z,60.66
2023-05-14T06:00:49.955Z,58.22
2023-05-14T06:06:52.130Z,57.87
2023-05-14T06:12:54.554Z,55.35
2023-05-14T06:18:57.067Z,54.71
2023-05-14T06:25:20.931Z,54.82
2023-05-14T06:31:23.082Z,51.49
2023-05-14T06:37:31.151Z,48.69
2023-05-14T06:43:51.406Z,48.65
2023-05-14T06:49:53.573Z,49.33
2023-05-14T06:55:57.007Z,47.83
2023-05-14T07:01:59.567Z,47.00
2023-05-14T07:08:25.058Z,47.59
2023-05-14T07:14:29.822Z,47.46
2023-05-14T07:20:46.034Z,45.49
2023-05-14T07:26:59.854Z,44.77
2023-05-14T07:33:09.557Z,45.04
2023-05-14T07:39:37.687Z,42.98
2023-05-14T07:45:45.540Z,44.50
2023-05-14T07:51:47.658Z,43.59
2023-05-14T07:57:58.961Z,42.99
2023-05-14T08:04:03.777Z,41.62
2023-05-14T08:10:09.095Z,40.94
2023-05-14T08:16:11.585Z,38.00
2023-05-14T08:22:15.090Z,40.85
2023-05-14T08:28:27.839Z,39.79
2023-05-14T08:34:40.247Z,40.66
2023-05-14T08:40:43.569Z,36.95
2023-05-14T08:53:10.591Z,35.96
2023-05-14T08:59:16.117Z,34.70
2023-05-14T09:05:34.407Z,36.89
2023-05-14T09:11:51.196Z,35.28
2023-05-14T09:17:56.882Z,34.81
2023-05-14T09:24:00.640Z,35.37
2023-05-14T09:30:18.614Z,34.95
2023-05-14T09:36:21.126Z,32.91
2023-05-14T09:42:23.626Z,34.11
2023-05-14T09:48:27.095Z,32.04
2023-05-14T09:54:32.804Z,33.42
2023-05-14T10:00:37.079Z,33.60
2023-05-14T10:06:54.396Z,31.84
2023-05-14T10:13:15.358Z,32.04
2023-05-14T10:19:26.367Z,31.77
2023-05-14T10:25:31.494Z,32.32
2023-05-14T10:32:02.152Z,30.97
2023-05-14T10:38:10.279Z,31.65
2023-05-14T10:44:16.498Z,31.68
2023-05-14T10:50:24.427Z,31.42
2023-05-14T10:56:26.688Z,30.96
2023-05-14T11:02:33.911Z,31.92
2023-05-14T11:08:44.944Z,32.13
2023-05-14T11:14:48.244Z,32.26
2023-05-14T11:20:53.693Z,33.63
2023-05-14T11:27:00.217Z,32.72
2023-05-14T11:33:05.735Z,32.79
2023-05-14T11:39:12.629Z,31.65
2023-05-14T11:45:27.716Z,32.29
2023-05-14T11:51:45.271Z,31.46
2023-05-14T11:57:47.751Z,32.16
2023-05-14T12:03:51.300Z,32.99
2023-05-14T12:09:56.380Z,32.95
2023-05-14T12:16:07.227Z,32.96
2023-05-14T12:22:18.822Z,32.44
2023-05-14T12:28:24.520Z,32.21
2023-05-14T12:34:33.135Z,30.98
2023-05-14T12:40:37.197Z,31.98
2023-05-14T12:46:39.282Z,32.57
2023-05-14T12:52:41.065Z,32.40
2023-05-14T12:58:43.201Z,32.95
2023-05-14T13:04:45.851Z,32.64
2023-05-14T13:10:48.287Z,32.17
2023-05-14T13:16:50.122Z,30.72
2023-05-14T13:22:55.513Z,31.41
2023-05-14T13:29:01.120Z,30.08
2023-05-14T13:35:03.543Z,31.80
2023-05-14T13:41:05.885Z,31.45
2023-05-14T13:47:10.654Z,32.20
2023-05-14T13:53:31.364Z,29.82
2023-05-14T13:59:33.571Z,29.89
2023-05-14T14:05:38.708Z,30.39
2023-05-14T14:11:42.541Z,30.42
2023-05-14T14:17:47.070Z,29.79
2023-05-14T14:23:49.476Z,30.91
2023-05-14T14:29:51.943Z,29.91
2023-05-14T14:36:10.117Z,30.65
2023-05-14T14:42:21.722Z,29.77
2023-05-14T14:48:33.555Z,30.57
2023-05-14T14:54:41.009Z,30.32
2023-05-14T15:00:46.468Z,29.68
2023-05-14T15:06:48.973Z,30.68
2023-05-14T15:12:51.456Z,31.06
2023-05-14T15:19:03.018Z,30.95
2023-05-14T15:25:06.374Z,32.01
2023-05-14T15:31:19.296Z,32.19
2023-05-14T15:37:22.339Z,32.18
2023-05-14T15:43:27.855Z,32.57
2023-05-14T15:49:31.309Z,33.81
2023-05-14T15:55:39.870Z,34.12
2023-05-14T16:01:44.345Z,35.27
2023-05-14T16:07:55.232Z,35.28
2023-05-14T16:14:00.340Z,35.47
2023-05-14T16:20:08.808Z,35.62
2023-05-14T16:26:14.322Z,35.97
2023-05-14T16:32:16.897Z,36.62
2023-05-14T16:38:20.318Z,37.23
2023-05-14T16:44:31.462Z,37.64
2023-05-14T16:50:34.316Z,37.90
2023-05-14T16:56:37.747Z,38.70
2023-05-14T17:02:40.274Z,38.88
2023-05-14T17:08:42.783Z,39.14
2023-05-14T17:14:45.275Z,39.83
2023-05-14T17:20:47.720Z,40.11
2023-05-14T17:26:50.164Z,39.70
2023-05-14T17:32:54.650Z,40.29
2023-05-14T17:38:57.151Z,39.78
2023-05-14T17:44:59.629Z,39.57
2023-05-14T17:51:02.162Z,40.07
2023-05-14T17:57:16.290Z,40.28
2023-05-14T18:03:22.305Z,40.64
2023-05-14T18:09:27.709Z,41.00
2023-05-14T18:15:32.247Z,41.90
2023-05-14T18:21:40.741Z,42.12
2023-05-14T18:27:50.473Z,42.42
2023-05-14T18:34:07.071Z,43.63
2023-05-14T18:40:18.684Z,43.68
2023-05-14T18:46:36.962Z,43.90
2023-05-14T18:52:51.635Z,45.31
2023-05-14T18:59:11.480Z,45.52
2023-05-14T19:05:16.333Z,44.64
2023-05-14T19:11:20.845Z,46.91
2023-05-14T19:17:33.567Z,47.29
2023-05-14T19:23:41.883Z,47.46
2023-05-14T19:29:52.434Z,48.44
2023-05-14T19:35:57.869Z,47.75
2023-05-14T19:42:10.409Z,47.35
2023-05-14T19:48:16.090Z,47.71
2023-05-14T19:54:21.323Z,48.36
2023-05-14T20:00:24.160Z,51.12
2023-05-14T20:06:35.666Z,51.00
2023-05-14T20:12:43.372Z,51.55
2023-05-14T20:19:00.374Z,51.42
2023-05-14T20:25:02.845Z,51.44
2023-05-14T20:31:11.259Z,50.99
2023-05-14T20:37:26.220Z,50.88
2023-05-14T20:43:36.800Z,51.01
2023-05-14T20:49:57.180Z,50.85
2023-05-14T20:56:59.417Z,50.54
2023-05-14T21:03:10.373Z,50.29
2023-05-14T21:09:39.916Z,51.01
2023-05-14T21:15:45.156Z,51.22
2023-05-14T21:22:01.772Z,51.43
2023-05-14T21:28:40.257Z,51.66
2023-05-14T21:34:47.852Z,52.26
2023-05-14T21:41:50.067Z,53.61
2023-05-14T21:48:03.175Z,52.02
2023-05-14T21:54:11.661Z,52.54
2023-05-14T22:00:51.219Z,56.35
2023-05-14T22:07:10.666Z,56.61
2023-05-14T22:13:13.265Z,58.43
2023-05-14T22:26:20.129Z,54.53
2023-05-14T22:32:46.933Z,53.78
2023-05-14T22:45:41.699Z,53.54
2023-05-14T22:51:58.732Z,54.06
2023-05-14T22:58:01.261Z,53.27
2023-05-14T23:04:03.746Z,53.21
2023-05-14T23:10:27.090Z,52.56
2023-05-14T23:16:36.700Z,52.51
2023-05-14T23:22:40.266Z,52.65
2023-05-14T23:28:42.703Z,51.28
2023-05-14T23:34:48.186Z,49.70
2023-05-14T23:40:53.667Z,49.42
2023-05-14T23:46:57.140Z,48.64
2023-05-14T23:52:59.605Z,49.78
2023-05-14T23:59:05.034Z,52.86
